Zhenjiang, China
Current Conditions -  °F | °C
As of 9:00 PM on Sunday 21 Dec 2014 (Local Time) from ZSNJ Reporting Station
Scattered Clouds Scattered Clouds  
Wind Chill: 30°   Ceiling: Unl
Heat Index: 30°   Visibility: 5mi
Dew Point: 18°   Wind: 2mph
Humidity: 60%   Direction: 260°W
Pressure: 30.48"   Gusts: NA
Location:  32.22°N, 119.43°E
Report Text: ZSNJ 211300Z 26001MPS 8000 SCT046 M01/M08 Q1032 NOSIG
Loading
Personal Weather Stations






























Interactive Weather Map New forecast layout! Learn more

10-Day Weather Forecast

Advertisements
Track Severe Weather on mobile